createdAt,value
2023-01-17T00:01:16.938Z,63.13
2023-01-17T00:04:01.714Z,63.42
2023-01-17T00:06:46.867Z,64.50
2023-01-17T00:09:33.475Z,64.13
2023-01-17T00:12:02.502Z,63.08
2023-01-17T00:14:29.025Z,63.30
2023-01-17T00:16:55.484Z,63.94
2023-01-17T00:19:40.550Z,63.31
2023-01-17T00:22:30.103Z,63.13
2023-01-17T00:25:15.027Z,63.33
2023-01-17T00:27:41.378Z,64.04
2023-01-17T00:30:08.538Z,64.33
2023-01-17T00:32:35.201Z,64.16
2023-01-17T00:35:01.642Z,62.89
2023-01-17T00:37:28.173Z,63.92
2023-01-17T00:39:54.806Z,63.45
2023-01-17T00:42:21.122Z,63.84
2023-01-17T00:45:06.235Z,64.35
2023-01-17T00:47:53.087Z,64.23
2023-01-17T00:50:38.096Z,63.94
2023-01-17T00:53:23.897Z,64.06
2023-01-17T00:56:08.585Z,64.79
2023-01-17T00:58:53.877Z,66.18
2023-01-17T01:01:38.752Z,64.92
2023-01-17T01:04:23.606Z,65.09
2023-01-17T01:07:08.561Z,65.17
2023-01-17T01:09:53.281Z,64.88
2023-01-17T01:12:38.408Z,65.51
2023-01-17T01:15:23.654Z,65.08
2023-01-17T01:18:09.065Z,65.59
2023-01-17T01:20:53.763Z,65.40
2023-01-17T01:23:38.804Z,65.90
2023-01-17T01:26:24.202Z,65.17
2023-01-17T01:29:08.980Z,66.48
2023-01-17T01:31:53.871Z,65.29
2023-01-17T01:34:20.556Z,65.36
2023-01-17T01:36:46.929Z,65.58
2023-01-17T01:39:13.435Z,65.66
2023-01-17T01:41:39.823Z,65.73
2023-01-17T01:44:42.625Z,65.70
2023-01-17T01:47:15.625Z,65.60
2023-01-17T01:49:43.436Z,66.23
2023-01-17T01:52:10.876Z,65.56
2023-01-17T01:54:44.622Z,65.89
2023-01-17T01:57:15.809Z,65.73
2023-01-17T01:59:48.080Z,66.48
2023-01-17T02:02:15.497Z,66.20
2023-01-17T02:04:43.545Z,67.08
2023-01-17T02:07:18.887Z,66.04
2023-01-17T02:09:45.757Z,66.10
2023-01-17T02:12:13.457Z,65.97
2023-01-17T02:14:39.876Z,66.12
2023-01-17T02:17:09.279Z,65.58
2023-01-17T02:20:07.156Z,65.57
2023-01-17T02:22:51.440Z,66.23
2023-01-17T02:25:23.701Z,66.49
2023-01-17T02:28:18.692Z,66.20
2023-01-17T02:30:59.034Z,66.56
2023-01-17T02:33:39.215Z,66.08
2023-01-17T02:36:10.102Z,66.51
2023-01-17T02:38:42.229Z,66.45
2023-01-17T02:41:36.153Z,67.19
2023-01-17T02:44:04.076Z,66.21
2023-01-17T02:46:31.187Z,66.23
2023-01-17T02:48:58.340Z,66.19
2023-01-17T02:51:40.455Z,66.48
2023-01-17T02:54:21.690Z,66.54
2023-01-17T02:57:08.474Z,66.49
2023-01-17T02:59:55.725Z,66.73
2023-01-17T03:02:35.074Z,66.62
2023-01-17T03:05:44.395Z,66.71
2023-01-17T03:08:12.759Z,67.26
2023-01-17T03:10:40.658Z,67.81
2023-01-17T03:13:07.147Z,68.37
2023-01-17T03:15:33.567Z,69.36
2023-01-17T03:18:07.529Z,69.57
2023-01-17T03:20:33.904Z,70.47
2023-01-17T03:23:00.356Z,71.00
2023-01-17T03:25:27.223Z,71.52
2023-01-17T03:27:53.641Z,71.75
2023-01-17T03:30:21.712Z,72.57
2023-01-17T03:32:48.664Z,72.59
2023-01-17T03:35:15.476Z,72.27
2023-01-17T03:37:42.946Z,73.23
2023-01-17T03:40:09.872Z,72.80
2023-01-17T03:42:36.276Z,73.08
2023-01-17T03:45:02.735Z,72.70
2023-01-17T03:47:29.197Z,72.85
2023-01-17T03:49:55.601Z,72.74
2023-01-17T03:52:22.102Z,72.94
2023-01-17T03:54:48.671Z,72.89
2023-01-17T03:57:15.648Z,73.24
2023-01-17T03:59:42.197Z,73.72
2023-01-17T04:02:08.733Z,73.36
2023-01-17T04:04:35.294Z,73.16
2023-01-17T04:07:01.715Z,73.10
2023-01-17T04:09:28.177Z,72.82
2023-01-17T04:11:54.588Z,72.48
2023-01-17T04:14:21.002Z,73.03
2023-01-17T04:16:47.445Z,72.85
2023-01-17T04:19:13.940Z,72.51
2023-01-17T04:21:40.533Z,72.36
2023-01-17T04:24:07.658Z,72.48
2023-01-17T04:26:34.190Z,72.97
2023-01-17T04:29:00.778Z,74.25
2023-01-17T04:31:27.849Z,73.86
2023-01-17T04:33:54.316Z,72.61
2023-01-17T04:36:20.718Z,73.32
2023-01-17T04:38:47.113Z,73.68
2023-01-17T04:41:13.526Z,73.24
2023-01-17T04:43:39.958Z,73.17
2023-01-17T04:46:10.120Z,72.97
2023-01-17T04:48:36.771Z,73.31
2023-01-17T04:51:04.694Z,73.30
2023-01-17T04:53:31.604Z,74.18
2023-01-17T04:55:58.220Z,75.59
2023-01-17T04:58:24.640Z,77.02
2023-01-17T05:00:51.689Z,77.91
2023-01-17T05:03:20.056Z,78.70
2023-01-17T05:05:46.933Z,79.32
2023-01-17T05:08:14.156Z,78.64
2023-01-17T05:10:40.903Z,79.45
2023-01-17T05:13:07.310Z,78.52
2023-01-17T05:15:33.748Z,77.94
2023-01-17T05:18:00.151Z,78.25
2023-01-17T05:20:27.571Z,78.79
2023-01-17T05:22:57.805Z,78.72
2023-01-17T05:25:27.507Z,78.82
2023-01-17T05:27:53.939Z,77.86
2023-01-17T05:30:21.432Z,76.71
2023-01-17T05:32:52.173Z,77.73
2023-01-17T05:35:20.209Z,77.23
2023-01-17T05:37:49.112Z,78.39
2023-01-17T05:40:16.436Z,77.63
2023-01-17T05:42:50.394Z,77.71
2023-01-17T05:45:18.139Z,78.26
2023-01-17T05:47:45.991Z,77.27
2023-01-17T05:50:18.441Z,77.26
2023-01-17T05:52:56.836Z,77.34
2023-01-17T05:55:27.005Z,76.98
2023-01-17T05:57:54.918Z,76.74
2023-01-17T06:00:22.636Z,75.49
2023-01-17T06:02:49.542Z,75.45
2023-01-17T06:05:16.616Z,75.99
2023-01-17T06:07:44.310Z,75.32
2023-01-17T06:10:11.221Z,77.21
2023-01-17T06:12:37.728Z,76.38
2023-01-17T06:15:04.509Z,75.72
2023-01-17T06:17:30.933Z,75.13
2023-01-17T06:19:57.421Z,75.38
2023-01-17T06:22:24.110Z,74.36
2023-01-17T06:24:50.553Z,75.44
2023-01-17T06:27:17.104Z,75.23
2023-01-17T06:29:43.548Z,75.09
2023-01-17T06:32:09.955Z,75.30
2023-01-17T06:34:38.206Z,75.24
2023-01-17T06:37:04.585Z,75.37
2023-01-17T06:39:31.071Z,75.49
2023-01-17T06:41:57.845Z,75.25
2023-01-17T06:44:24.471Z,75.26
2023-01-17T06:46:50.917Z,75.55
2023-01-17T06:49:17.501Z,74.77
2023-01-17T06:51:43.929Z,74.45
2023-01-17T06:54:10.676Z,75.45
2023-01-17T06:56:37.527Z,76.97
2023-01-17T06:59:04.662Z,75.79
2023-01-17T07:01:31.357Z,75.97
2023-01-17T07:03:58.048Z,76.05
2023-01-17T07:06:28.611Z,75.57
2023-01-17T07:08:56.328Z,75.44
2023-01-17T07:11:23.359Z,75.83
2023-01-17T07:13:50.052Z,75.47
2023-01-17T07:16:16.732Z,74.91
2023-01-17T07:18:44.340Z,74.59
2023-01-17T07:21:15.185Z,75.11
2023-01-17T07:23:42.390Z,74.75
2023-01-17T07:26:09.160Z,74.24
2023-01-17T07:28:35.688Z,73.44
2023-01-17T07:31:08.645Z,73.15
2023-01-17T07:33:35.334Z,73.04
2023-01-17T07:36:09.217Z,73.35
2023-01-17T07:38:35.886Z,73.45
2023-01-17T07:41:02.392Z,73.67
2023-01-17T07:43:29.012Z,73.31
2023-01-17T07:45:55.574Z,74.12
2023-01-17T07:48:24.487Z,73.91
2023-01-17T07:50:55.995Z,73.86
2023-01-17T07:53:24.776Z,73.92
2023-01-17T07:55:51.556Z,73.37
2023-01-17T07:58:18.438Z,73.54
2023-01-17T08:00:47.933Z,72.47
2023-01-17T08:03:16.605Z,72.54
2023-01-17T08:05:53.041Z,72.65
2023-01-17T08:08:19.636Z,72.75
2023-01-17T08:10:46.121Z,72.58
2023-01-17T08:13:12.594Z,72.63
2023-01-17T08:15:39.010Z,72.58
2023-01-17T08:18:05.453Z,72.70
2023-01-17T08:20:31.899Z,73.13
2023-01-17T08:22:58.298Z,73.42
2023-01-17T08:25:25.970Z,73.19
2023-01-17T08:27:56.945Z,73.15
2023-01-17T08:30:24.053Z,72.83
2023-01-17T08:32:50.479Z,72.52
2023-01-17T08:35:17.036Z,72.35
2023-01-17T08:37:43.573Z,72.10
2023-01-17T08:40:11.153Z,72.92
2023-01-17T08:42:40.042Z,72.36
2023-01-17T08:45:08.853Z,72.49
2023-01-17T08:47:36.012Z,71.89
2023-01-17T08:50:03.284Z,71.72
2023-01-17T08:52:29.904Z,71.14
2023-01-17T08:54:59.350Z,71.34
2023-01-17T08:57:25.740Z,70.96
2023-01-17T08:59:52.250Z,70.77
2023-01-17T09:02:19.908Z,70.89
2023-01-17T09:04:50.288Z,75.25
2023-01-17T09:07:18.681Z,66.64
2023-01-17T09:09:45.276Z,70.54
2023-01-17T09:12:11.966Z,65.08
2023-01-17T09:14:38.563Z,61.04
2023-01-17T09:17:06.789Z,62.86
2023-01-17T09:19:33.357Z,64.16
2023-01-17T09:21:59.931Z,65.63
2023-01-17T09:24:26.478Z,66.61
2023-01-17T09:26:52.923Z,66.01
2023-01-17T09:29:19.382Z,65.07
2023-01-17T09:31:47.965Z,66.09
2023-01-17T09:34:14.404Z,67.73
2023-01-17T09:36:42.062Z,66.02
2023-01-17T09:39:10.762Z,68.48
2023-01-17T09:41:49.531Z,67.18
2023-01-17T09:44:24.983Z,67.85
2023-01-17T09:46:55.555Z,69.04
2023-01-17T09:49:43.360Z,69.86
2023-01-17T09:52:14.643Z,70.12
2023-01-17T09:54:42.916Z,70.41
2023-01-17T09:57:28.597Z,70.10
2023-01-17T10:00:12.960Z,69.86
2023-01-17T10:03:11.707Z,70.78
2023-01-17T10:05:44.817Z,69.68
2023-01-17T10:08:41.773Z,69.95
2023-01-17T10:11:28.848Z,68.98
2023-01-17T10:14:15.511Z,68.91
2023-01-17T10:16:55.701Z,69.96
2023-01-17T10:19:31.504Z,70.96
2023-01-17T10:22:07.544Z,69.22
2023-01-17T10:24:56.411Z,70.50
2023-01-17T10:27:30.386Z,69.93
2023-01-17T10:29:57.489Z,69.87
2023-01-17T10:32:29.004Z,69.06
2023-01-17T10:34:58.127Z,71.72
2023-01-17T10:37:35.017Z,70.61
2023-01-17T10:40:14.038Z,71.67
2023-01-17T10:43:10.044Z,70.17
2023-01-17T10:45:41.429Z,69.12
2023-01-17T10:48:28.539Z,70.33
2023-01-17T10:51:28.434Z,70.18
2023-01-17T10:54:30.598Z,69.40
2023-01-17T10:56:58.690Z,69.10
2023-01-17T10:59:33.498Z,68.29
2023-01-17T11:02:06.842Z,68.21
2023-01-17T11:04:37.838Z,68.57
2023-01-17T11:07:19.607Z,69.73
2023-01-17T11:09:49.816Z,67.98
2023-01-17T11:12:39.457Z,69.67
2023-01-17T11:15:08.669Z,69.15
2023-01-17T11:17:49.965Z,69.37
2023-01-17T11:20:23.995Z,69.58
2023-01-17T11:23:26.306Z,69.15
2023-01-17T11:25:57.912Z,70.02
2023-01-17T11:28:30.505Z,70.65
2023-01-17T11:31:08.822Z,70.04
2023-01-17T11:33:45.341Z,71.67
2023-01-17T11:36:38.365Z,71.40
2023-01-17T11:39:19.803Z,74.22
2023-01-17T11:41:47.795Z,73.09
2023-01-17T11:44:35.189Z,76.06
2023-01-17T11:47:12.202Z,76.37
2023-01-17T11:49:40.509Z,77.01
2023-01-17T11:52:32.335Z,82.29
2023-01-17T11:54:59.312Z,80.50
2023-01-17T11:57:32.758Z,83.21
2023-01-17T12:00:11.858Z,81.46
2023-01-17T12:03:10.683Z,80.60
2023-01-17T12:05:48.160Z,82.33
2023-01-17T12:08:51.233Z,80.10
2023-01-17T12:11:35.948Z,81.42
2023-01-17T12:14:05.403Z,80.15
2023-01-17T12:17:08.063Z,80.47
2023-01-17T12:19:54.232Z,81.02
2023-01-17T12:22:42.318Z,82.33
2023-01-17T12:25:26.824Z,80.80
2023-01-17T12:28:32.274Z,81.00
2023-01-17T12:31:16.174Z,79.83
2023-01-17T12:33:49.068Z,79.45
2023-01-17T12:36:25.162Z,79.03
2023-01-17T12:38:51.630Z,80.60
2023-01-17T12:41:24.283Z,78.99
2023-01-17T12:43:56.337Z,78.81
2023-01-17T12:46:50.199Z,77.64
2023-01-17T12:49:45.266Z,79.89
2023-01-17T12:52:23.720Z,77.04
2023-01-17T12:55:02.597Z,76.06
2023-01-17T12:57:33.650Z,77.99
2023-01-17T13:00:12.371Z,76.11
2023-01-17T13:02:47.611Z,76.24
2023-01-17T13:05:23.799Z,76.50
2023-01-17T13:08:01.051Z,74.95
2023-01-17T13:10:41.135Z,74.14
2023-01-17T13:13:27.773Z,73.45
2023-01-17T13:16:00.306Z,70.86
2023-01-17T13:18:29.931Z,70.38
2023-01-17T13:21:08.990Z,71.48
2023-01-17T13:23:47.421Z,72.75
2023-01-17T13:26:27.938Z,71.09
2023-01-17T13:29:12.497Z,69.13
2023-01-17T13:31:54.167Z,71.00
2023-01-17T13:34:40.674Z,71.71
2023-01-17T13:37:29.126Z,69.36
2023-01-17T13:40:44.125Z,69.05
2023-01-17T13:43:19.718Z,68.91
2023-01-17T13:45:59.274Z,69.57
2023-01-17T13:48:28.987Z,67.23
2023-01-17T13:50:58.630Z,68.31
2023-01-17T13:53:34.318Z,69.95
2023-01-17T13:56:15.280Z,70.02
2023-01-17T13:58:51.751Z,68.79
2023-01-17T14:01:24.500Z,70.12
2023-01-17T14:03:51.193Z,70.40
2023-01-17T14:06:45.092Z,68.07
2023-01-17T14:09:17.112Z,68.40
2023-01-17T14:11:54.800Z,67.57
2023-01-17T14:14:39.979Z,69.74
2023-01-17T14:17:29.171Z,68.22
2023-01-17T14:20:01.172Z,67.23
2023-01-17T14:22:35.429Z,67.04
2023-01-17T14:25:17.817Z,66.99
2023-01-17T14:27:58.854Z,68.50
2023-01-17T14:30:29.338Z,70.39
2023-01-17T14:32:58.483Z,71.44
2023-01-17T14:35:29.823Z,70.87
2023-01-17T14:37:57.810Z,71.20
2023-01-17T14:40:27.406Z,71.30
2023-01-17T14:43:01.624Z,69.88
2023-01-17T14:45:33.727Z,67.75
2023-01-17T14:48:05.590Z,65.90
2023-01-17T14:50:37.936Z,64.11
2023-01-17T14:53:13.725Z,63.53
2023-01-17T14:55:52.006Z,64.04
2023-01-17T14:58:18.584Z,63.72
2023-01-17T15:00:45.682Z,64.12
2023-01-17T15:03:13.195Z,64.25
2023-01-17T15:05:42.131Z,65.20
2023-01-17T15:08:33.917Z,64.48
2023-01-17T15:11:05.647Z,64.46
2023-01-17T15:13:46.071Z,64.64
2023-01-17T15:16:24.293Z,64.63
2023-01-17T15:18:52.409Z,64.95
2023-01-17T15:21:24.728Z,64.78
2023-01-17T15:24:03.457Z,65.34
2023-01-17T15:26:34.173Z,66.32
2023-01-17T15:29:07.241Z,65.89
2023-01-17T15:31:44.694Z,68.36
2023-01-17T15:34:32.682Z,66.26
2023-01-17T15:37:04.547Z,65.88
2023-01-17T15:39:37.797Z,64.86
2023-01-17T15:42:18.848Z,64.90
2023-01-17T15:44:48.984Z,65.10
2023-01-17T15:47:28.131Z,64.28
2023-01-17T15:49:54.612Z,64.46
2023-01-17T15:52:21.822Z,66.40
2023-01-17T15:55:15.849Z,65.24
2023-01-17T15:57:47.777Z,67.32
2023-01-17T16:00:18.958Z,65.92
2023-01-17T16:02:58.065Z,65.11
2023-01-17T16:05:34.839Z,64.88
2023-01-17T16:08:04.602Z,66.32
2023-01-17T16:10:32.941Z,67.31
2023-01-17T16:12:59.613Z,67.44
2023-01-17T16:15:27.414Z,67.29
2023-01-17T16:18:01.226Z,65.05
2023-01-17T16:20:39.426Z,65.58
2023-01-17T16:23:05.863Z,65.03
2023-01-17T16:25:32.903Z,64.69
2023-01-17T16:28:00.165Z,66.54
2023-01-17T16:30:27.326Z,65.90
2023-01-17T16:32:56.397Z,65.55
2023-01-17T16:35:25.238Z,64.30
2023-01-17T16:37:53.995Z,65.68
2023-01-17T16:40:22.077Z,65.62
2023-01-17T16:42:49.091Z,65.45
2023-01-17T16:45:16.219Z,65.33
2023-01-17T16:47:44.892Z,65.30
2023-01-17T16:50:12.817Z,66.29
2023-01-17T16:52:39.912Z,65.53
2023-01-17T16:55:09.685Z,64.73
2023-01-17T16:57:36.181Z,66.69
2023-01-17T17:00:04.059Z,65.97
2023-01-17T17:02:30.627Z,65.07
2023-01-17T17:04:57.162Z,66.08
2023-01-17T17:07:23.622Z,65.37
2023-01-17T17:09:50.094Z,65.10
2023-01-17T17:12:16.543Z,66.33
2023-01-17T17:14:43.173Z,65.15
2023-01-17T17:17:09.713Z,66.10
2023-01-17T17:19:36.301Z,64.84
2023-01-17T17:22:02.721Z,64.59
2023-01-17T17:24:29.198Z,65.92
2023-01-17T17:26:56.529Z,65.26
2023-01-17T17:29:26.050Z,66.72
2023-01-17T17:31:53.673Z,65.02
2023-01-17T17:34:20.738Z,65.15
2023-01-17T17:36:47.227Z,66.32
2023-01-17T17:39:17.626Z,65.48
2023-01-17T17:41:45.746Z,66.31
2023-01-17T17:44:12.649Z,66.67
2023-01-17T17:46:39.405Z,67.13
2023-01-17T17:49:06.724Z,67.38
2023-01-17T17:51:35.922Z,66.35
2023-01-17T17:54:05.596Z,65.66
2023-01-17T17:56:33.057Z,64.71
2023-01-17T17:59:00.803Z,64.45
2023-01-17T18:01:27.846Z,64.04
2023-01-17T18:04:01.733Z,65.10
2023-01-17T18:06:28.208Z,65.12
2023-01-17T18:08:54.676Z,65.74
2023-01-17T18:11:26.748Z,65.90
2023-01-17T18:13:56.443Z,67.63
2023-01-17T18:16:26.134Z,67.39
2023-01-17T18:18:55.485Z,67.64
2023-01-17T18:21:25.524Z,67.56
2023-01-17T18:23:54.453Z,66.21
2023-01-17T18:26:32.926Z,67.39
2023-01-17T18:29:00.394Z,65.54
2023-01-17T18:31:28.963Z,67.96
2023-01-17T18:34:00.117Z,66.74
2023-01-17T18:36:28.735Z,65.89
2023-01-17T18:38:57.665Z,65.87
2023-01-17T18:41:29.372Z,65.53
2023-01-17T18:43:58.432Z,65.19
2023-01-17T18:46:26.604Z,65.39
2023-01-17T18:48:55.833Z,66.56
2023-01-17T18:51:22.925Z,65.58
2023-01-17T18:53:49.750Z,66.92
2023-01-17T18:56:22.123Z,66.70
2023-01-17T18:58:49.931Z,65.72
2023-01-17T19:01:17.845Z,66.11
2023-01-17T19:03:46.657Z,66.73
2023-01-17T19:06:16.865Z,67.13
2023-01-17T19:08:43.679Z,66.13
2023-01-17T19:11:10.859Z,67.10
2023-01-17T19:13:38.479Z,66.55
2023-01-17T19:16:08.022Z,66.40
2023-01-17T19:18:35.460Z,65.80
2023-01-17T19:21:10.099Z,66.10
2023-01-17T19:23:37.697Z,67.14
2023-01-17T19:26:05.796Z,66.36
2023-01-17T19:28:35.512Z,67.31
2023-01-17T19:31:16.365Z,66.50
2023-01-17T19:33:44.540Z,66.48
2023-01-17T19:36:14.145Z,66.54
2023-01-17T19:38:40.544Z,67.15
2023-01-17T19:41:14.844Z,66.96
2023-01-17T19:43:42.682Z,67.07
2023-01-17T19:46:10.553Z,67.15
2023-01-17T19:48:39.092Z,67.44
2023-01-17T19:51:14.586Z,67.91
2023-01-17T19:53:41.842Z,67.53
2023-01-17T19:56:10.722Z,67.03
2023-01-17T19:58:38.806Z,67.71
2023-01-17T20:01:07.504Z,67.96
2023-01-17T20:03:34.387Z,67.40
2023-01-17T20:06:01.085Z,67.03
2023-01-17T20:08:28.964Z,67.34
2023-01-17T20:11:00.908Z,67.15
2023-01-17T20:13:27.369Z,67.84
2023-01-17T20:15:53.980Z,67.07
2023-01-17T20:18:20.884Z,68.37
2023-01-17T20:20:56.926Z,68.79
2023-01-17T20:23:23.980Z,67.65
2023-01-17T20:25:59.138Z,68.24
2023-01-17T20:28:28.071Z,69.12
2023-01-17T20:30:55.720Z,68.13
2023-01-17T20:33:24.164Z,68.28
2023-01-17T20:36:09.069Z,68.89
2023-01-17T20:38:46.108Z,68.67
2023-01-17T20:41:24.382Z,69.54
2023-01-17T20:43:53.095Z,68.25
2023-01-17T20:46:21.760Z,69.59
2023-01-17T20:48:50.792Z,68.73
2023-01-17T20:51:21.164Z,69.55
2023-01-17T20:53:52.761Z,68.96
2023-01-17T20:56:20.454Z,69.12
2023-01-17T20:58:53.155Z,68.57
2023-01-17T21:01:21.304Z,69.46
2023-01-17T21:03:51.188Z,69.76
2023-01-17T21:06:19.507Z,68.10
2023-01-17T21:08:47.432Z,69.12
2023-01-17T21:11:16.579Z,70.37
2023-01-17T21:13:43.855Z,69.68
2023-01-17T21:16:14.440Z,70.10
2023-01-17T21:18:41.369Z,70.72
2023-01-17T21:21:11.037Z,72.35
2023-01-17T21:23:39.156Z,71.88
2023-01-17T21:26:06.827Z,71.97
2023-01-17T21:28:39.585Z,71.85
2023-01-17T21:31:25.827Z,71.01
2023-01-17T21:33:56.501Z,70.77
2023-01-17T21:36:28.547Z,71.90
2023-01-17T21:38:58.739Z,71.50
2023-01-17T21:41:31.219Z,71.07
2023-01-17T21:44:02.017Z,71.48
2023-01-17T21:46:29.478Z,72.06
2023-01-17T21:48:57.612Z,70.96
2023-01-17T21:51:27.595Z,71.90
2023-01-17T21:53:54.090Z,72.69
2023-01-17T21:56:39.436Z,72.25
2023-01-17T21:59:05.943Z,72.10
2023-01-17T22:01:33.214Z,71.71
2023-01-17T22:04:03.051Z,71.72
2023-01-17T22:06:39.259Z,73.05
2023-01-17T22:09:06.519Z,71.52
2023-01-17T22:11:36.765Z,70.95
2023-01-17T22:14:06.703Z,72.59
2023-01-17T22:16:33.489Z,73.32
2023-01-17T22:18:59.911Z,73.15
2023-01-17T22:21:28.588Z,73.70
2023-01-17T22:23:57.555Z,73.61
2023-01-17T22:26:31.897Z,73.87
2023-01-17T22:29:05.206Z,73.60
2023-01-17T22:31:31.856Z,73.99
2023-01-17T22:34:01.908Z,73.71
2023-01-17T22:36:29.859Z,73.14
2023-01-17T22:38:57.612Z,74.59
2023-01-17T22:41:29.711Z,73.23
2023-01-17T22:43:59.569Z,73.33
2023-01-17T22:46:28.576Z,74.10
2023-01-17T22:48:59.011Z,73.74
2023-01-17T22:51:27.590Z,73.71
2023-01-17T22:54:11.402Z,73.26
2023-01-17T22:56:41.383Z,73.27
2023-01-17T22:59:11.612Z,74.41
2023-01-17T23:01:42.489Z,73.81
2023-01-17T23:04:13.166Z,75.04
2023-01-17T23:06:40.763Z,75.30
2023-01-17T23:09:10.627Z,76.18
2023-01-17T23:11:39.484Z,76.33
2023-01-17T23:14:12.079Z,76.69
2023-01-17T23:16:58.636Z,76.46
2023-01-17T23:19:29.563Z,77.68
2023-01-17T23:22:16.955Z,77.46
2023-01-17T23:24:45.405Z,77.94
2023-01-17T23:27:44.100Z,77.94
2023-01-17T23:30:14.653Z,79.14
2023-01-17T23:32:47.626Z,78.45
2023-01-17T23:35:15.294Z,78.25
2023-01-17T23:38:00.766Z,79.32
2023-01-17T23:40:27.841Z,78.45
2023-01-17T23:43:12.537Z,80.15
2023-01-17T23:45:39.813Z,79.35
2023-01-17T23:48:09.809Z,79.52
2023-01-17T23:50:44.066Z,79.75
2023-01-17T23:53:17.418Z,79.47
2023-01-17T23:55:46.841Z,79.94
2023-01-17T23:58:13.754Z,80.04
